sensor_id;sensor_type;location;lat;lon;timestamp;temperature;humidity
28845;DHT22;15976;47.938;7.758;2024-02-28T00:02:05;10.30;74.40
28845;DHT22;15976;47.938;7.758;2024-02-28T00:04:32;10.20;74.40
28845;DHT22;15976;47.938;7.758;2024-02-28T00:06:59;10.20;74.40
28845;DHT22;15976;47.938;7.758;2024-02-28T00:09:26;10.20;74.50
28845;DHT22;15976;47.938;7.758;2024-02-28T00:11:53;10.20;74.60
28845;DHT22;15976;47.938;7.758;2024-02-28T00:14:20;10.20;74.60
28845;DHT22;15976;47.938;7.758;2024-02-28T00:16:47;10.20;75.50
28845;DHT22;15976;47.938;7.758;2024-02-28T00:19:15;10.20;74.80
28845;DHT22;15976;47.938;7.758;2024-02-28T00:21:47;10.10;74.70
28845;DHT22;15976;47.938;7.758;2024-02-28T00:24:14;10.20;74.80
28845;DHT22;15976;47.938;7.758;2024-02-28T00:26:42;10.10;74.80
28845;DHT22;15976;47.938;7.758;2024-02-28T00:29:10;10.10;74.80
28845;DHT22;15976;47.938;7.758;2024-02-28T00:31:37;10.10;74.90
28845;DHT22;15976;47.938;7.758;2024-02-28T00:34:04;10.00;75.00
28845;DHT22;15976;47.938;7.758;2024-02-28T00:36:31;10.00;75.20
28845;DHT22;15976;47.938;7.758;2024-02-28T00:39:14;10.00;75.30
28845;DHT22;15976;47.938;7.758;2024-02-28T00:41:41;10.00;75.30
28845;DHT22;15976;47.938;7.758;2024-02-28T00:44:08;9.90;75.30
28845;DHT22;15976;47.938;7.758;2024-02-28T00:46:36;9.90;75.50
28845;DHT22;15976;47.938;7.758;2024-02-28T00:49:03;9.80;75.50
28845;DHT22;15976;47.938;7.758;2024-02-28T00:51:30;9.70;75.60
28845;DHT22;15976;47.938;7.758;2024-02-28T00:53:57;9.70;75.80
28845;DHT22;15976;47.938;7.758;2024-02-28T00:56:24;9.70;76.00
28845;DHT22;15976;47.938;7.758;2024-02-28T00:58:52;9.60;76.20
28845;DHT22;15976;47.938;7.758;2024-02-28T01:01:19;9.50;76.40
28845;DHT22;15976;47.938;7.758;2024-02-28T01:03:46;9.50;76.50
28845;DHT22;15976;47.938;7.758;2024-02-28T01:06:13;9.50;76.70
28845;DHT22;15976;47.938;7.758;2024-02-28T01:08:41;9.40;76.80
28845;DHT22;15976;47.938;7.758;2024-02-28T01:11:10;9.40;77.00
28845;DHT22;15976;47.938;7.758;2024-02-28T01:13:37;9.30;77.00
28845;DHT22;15976;47.938;7.758;2024-02-28T01:16:04;9.30;77.20
28845;DHT22;15976;47.938;7.758;2024-02-28T01:18:31;9.30;77.20
28845;DHT22;15976;47.938;7.758;2024-02-28T01:20:59;9.30;77.30
28845;DHT22;15976;47.938;7.758;2024-02-28T01:23:26;9.30;77.50
28845;DHT22;15976;47.938;7.758;2024-02-28T01:25:53;9.20;77.50
28845;DHT22;15976;47.938;7.758;2024-02-28T01:28:20;9.30;77.40
28845;DHT22;15976;47.938;7.758;2024-02-28T01:30:48;9.30;77.40
28845;DHT22;15976;47.938;7.758;2024-02-28T01:33:16;9.30;77.40
28845;DHT22;15976;47.938;7.758;2024-02-28T01:35:43;9.20;77.40
28845;DHT22;15976;47.938;7.758;2024-02-28T01:38:10;9.20;77.30
28845;DHT22;15976;47.938;7.758;2024-02-28T01:40:37;9.20;77.30
28845;DHT22;15976;47.938;7.758;2024-02-28T01:43:07;9.20;77.30
28845;DHT22;15976;47.938;7.758;2024-02-28T01:45:34;9.20;77.30
28845;DHT22;15976;47.938;7.758;2024-02-28T01:48:03;9.20;77.30
28845;DHT22;15976;47.938;7.758;2024-02-28T01:50:32;9.20;77.30
28845;DHT22;15976;47.938;7.758;2024-02-28T01:53:01;9.20;77.20
28845;DHT22;15976;47.938;7.758;2024-02-28T01:55:28;9.10;77.10
28845;DHT22;15976;47.938;7.758;2024-02-28T01:57:55;9.10;77.10
28845;DHT22;15976;47.938;7.758;2024-02-28T02:00:24;9.10;77.10
28845;DHT22;15976;47.938;7.758;2024-02-28T02:02:52;9.10;77.10
28845;DHT22;15976;47.938;7.758;2024-02-28T02:05:19;9.10;77.10
28845;DHT22;15976;47.938;7.758;2024-02-28T02:07:50;9.10;77.00
28845;DHT22;15976;47.938;7.758;2024-02-28T02:10:18;9.10;77.00
28845;DHT22;15976;47.938;7.758;2024-02-28T02:12:45;9.10;76.90
28845;DHT22;15976;47.938;7.758;2024-02-28T02:15:12;9.00;76.90
28845;DHT22;15976;47.938;7.758;2024-02-28T02:17:39;9.00;77.00
28845;DHT22;15976;47.938;7.758;2024-02-28T02:20:10;9.00;77.00
28845;DHT22;15976;47.938;7.758;2024-02-28T02:22:39;9.00;77.00
28845;DHT22;15976;47.938;7.758;2024-02-28T02:25:06;9.00;76.90
28845;DHT22;15976;47.938;7.758;2024-02-28T02:27:33;9.00;76.80
28845;DHT22;15976;47.938;7.758;2024-02-28T02:30:01;9.00;76.90
28845;DHT22;15976;47.938;7.758;2024-02-28T02:32:28;9.00;77.70
28845;DHT22;15976;47.938;7.758;2024-02-28T02:34:55;9.00;76.90
28845;DHT22;15976;47.938;7.758;2024-02-28T02:37:22;9.00;76.90
28845;DHT22;15976;47.938;7.758;2024-02-28T02:39:49;9.00;77.00
28845;DHT22;15976;47.938;7.758;2024-02-28T02:42:16;9.00;77.10
28845;DHT22;15976;47.938;7.758;2024-02-28T02:44:44;8.90;77.10
28845;DHT22;15976;47.938;7.758;2024-02-28T02:47:11;9.00;77.20
28845;DHT22;15976;47.938;7.758;2024-02-28T02:49:38;9.00;77.10
28845;DHT22;15976;47.938;7.758;2024-02-28T02:52:05;9.00;77.10
28845;DHT22;15976;47.938;7.758;2024-02-28T02:54:32;9.00;77.00
28845;DHT22;15976;47.938;7.758;2024-02-28T02:57:00;8.90;77.00
28845;DHT22;15976;47.938;7.758;2024-02-28T02:59:27;8.90;77.10
28845;DHT22;15976;47.938;7.758;2024-02-28T03:01:53;8.90;77.10
28845;DHT22;15976;47.938;7.758;2024-02-28T03:04:20;8.90;77.00
28845;DHT22;15976;47.938;7.758;2024-02-28T03:06:47;8.90;77.00
28845;DHT22;15976;47.938;7.758;2024-02-28T03:09:14;8.90;77.10
28845;DHT22;15976;47.938;7.758;2024-02-28T03:15:57;8.90;77.20
28845;DHT22;15976;47.938;7.758;2024-02-28T03:18:25;8.80;77.10
28845;DHT22;15976;47.938;7.758;2024-02-28T03:20:52;8.80;77.10
28845;DHT22;15976;47.938;7.758;2024-02-28T03:23:19;8.80;77.10
28845;DHT22;15976;47.938;7.758;2024-02-28T03:25:46;8.70;77.10
28845;DHT22;15976;47.938;7.758;2024-02-28T03:28:13;8.70;77.20
28845;DHT22;15976;47.938;7.758;2024-02-28T03:30:40;8.70;77.30
28845;DHT22;15976;47.938;7.758;2024-02-28T03:33:07;8.70;77.20
28845;DHT22;15976;47.938;7.758;2024-02-28T03:35:35;8.70;77.30
28845;DHT22;15976;47.938;7.758;2024-02-28T03:38:02;8.70;77.20
28845;DHT22;15976;47.938;7.758;2024-02-28T03:40:29;8.70;77.20
28845;DHT22;15976;47.938;7.758;2024-02-28T03:42:56;8.70;77.20
28845;DHT22;15976;47.938;7.758;2024-02-28T03:45:23;8.70;77.20
28845;DHT22;15976;47.938;7.758;2024-02-28T03:47:50;8.70;77.20
28845;DHT22;15976;47.938;7.758;2024-02-28T03:50:17;8.60;77.10
28845;DHT22;15976;47.938;7.758;2024-02-28T03:52:45;8.70;77.10
28845;DHT22;15976;47.938;7.758;2024-02-28T03:55:12;8.70;77.20
28845;DHT22;15976;47.938;7.758;2024-02-28T03:57:38;8.70;77.20
28845;DHT22;15976;47.938;7.758;2024-02-28T04:00:06;8.70;77.20
28845;DHT22;15976;47.938;7.758;2024-02-28T04:02:40;8.70;77.20
28845;DHT22;15976;47.938;7.758;2024-02-28T04:05:07;8.70;77.20
28845;DHT22;15976;47.938;7.758;2024-02-28T04:07:35;8.70;77.00
28845;DHT22;15976;47.938;7.758;2024-02-28T04:10:02;8.70;77.00
28845;DHT22;15976;47.938;7.758;2024-02-28T04:12:32;8.70;77.00
28845;DHT22;15976;47.938;7.758;2024-02-28T04:15:00;8.70;77.00
28845;DHT22;15976;47.938;7.758;2024-02-28T04:17:27;8.70;77.00
28845;DHT22;15976;47.938;7.758;2024-02-28T04:19:54;8.70;77.00
28845;DHT22;15976;47.938;7.758;2024-02-28T04:22:21;8.70;77.00
28845;DHT22;15976;47.938;7.758;2024-02-28T04:24:48;8.70;77.00
28845;DHT22;15976;47.938;7.758;2024-02-28T04:27:18;8.60;76.90
28845;DHT22;15976;47.938;7.758;2024-02-28T04:29:45;8.60;77.00
28845;DHT22;15976;47.938;7.758;2024-02-28T04:32:13;8.60;77.20
28845;DHT22;15976;47.938;7.758;2024-02-28T04:34:40;8.50;77.10
28845;DHT22;15976;47.938;7.758;2024-02-28T04:37:07;8.50;77.20
28845;DHT22;15976;47.938;7.758;2024-02-28T04:39:34;8.50;77.30
28845;DHT22;15976;47.938;7.758;2024-02-28T04:42:01;8.50;77.30
28845;DHT22;15976;47.938;7.758;2024-02-28T04:44:29;8.50;77.30
28845;DHT22;15976;47.938;7.758;2024-02-28T04:46:56;8.50;77.20
28845;DHT22;15976;47.938;7.758;2024-02-28T04:49:23;8.40;77.10
28845;DHT22;15976;47.938;7.758;2024-02-28T04:51:50;8.50;77.20
28845;DHT22;15976;47.938;7.758;2024-02-28T04:54:17;8.50;77.10
28845;DHT22;15976;47.938;7.758;2024-02-28T04:56:45;8.50;77.10
28845;DHT22;15976;47.938;7.758;2024-02-28T04:59:13;8.50;77.20
28845;DHT22;15976;47.938;7.758;2024-02-28T05:01:40;8.50;78.00
28845;DHT22;15976;47.938;7.758;2024-02-28T05:04:09;8.40;77.00
28845;DHT22;15976;47.938;7.758;2024-02-28T05:06:36;8.40;77.00
28845;DHT22;15976;47.938;7.758;2024-02-28T05:09:06;8.50;77.10
28845;DHT22;15976;47.938;7.758;2024-02-28T05:11:34;8.50;77.10
28845;DHT22;15976;47.938;7.758;2024-02-28T05:14:01;8.50;77.10
28845;DHT22;15976;47.938;7.758;2024-02-28T05:16:28;8.50;77.00
28845;DHT22;15976;47.938;7.758;2024-02-28T05:18:55;8.50;77.00
28845;DHT22;15976;47.938;7.758;2024-02-28T05:21:22;8.50;77.10
28845;DHT22;15976;47.938;7.758;2024-02-28T05:23:50;8.50;77.00
28845;DHT22;15976;47.938;7.758;2024-02-28T05:26:17;8.40;77.00
28845;DHT22;15976;47.938;7.758;2024-02-28T05:28:44;8.40;77.00
28845;DHT22;15976;47.938;7.758;2024-02-28T05:31:21;8.40;77.10
28845;DHT22;15976;47.938;7.758;2024-02-28T05:33:55;8.40;77.20
28845;DHT22;15976;47.938;7.758;2024-02-28T05:36:26;8.40;77.20
28845;DHT22;15976;47.938;7.758;2024-02-28T05:38:55;8.40;77.20
28845;DHT22;15976;47.938;7.758;2024-02-28T05:41:22;8.40;77.10
28845;DHT22;15976;47.938;7.758;2024-02-28T05:43:51;8.40;77.10
28845;DHT22;15976;47.938;7.758;2024-02-28T05:46:18;8.40;77.10
28845;DHT22;15976;47.938;7.758;2024-02-28T05:48:45;8.40;77.20
28845;DHT22;15976;47.938;7.758;2024-02-28T05:51:12;8.30;77.20
28845;DHT22;15976;47.938;7.758;2024-02-28T05:53:42;8.30;77.20
28845;DHT22;15976;47.938;7.758;2024-02-28T05:56:10;8.30;77.20
28845;DHT22;15976;47.938;7.758;2024-02-28T05:58:41;8.30;77.30
28845;DHT22;15976;47.938;7.758;2024-02-28T06:01:10;8.20;77.30
28845;DHT22;15976;47.938;7.758;2024-02-28T06:03:38;8.20;77.40
28845;DHT22;15976;47.938;7.758;2024-02-28T06:06:05;8.20;77.50
28845;DHT22;15976;47.938;7.758;2024-02-28T06:08:38;8.20;77.50
28845;DHT22;15976;47.938;7.758;2024-02-28T06:11:05;8.10;77.40
28845;DHT22;15976;47.938;7.758;2024-02-28T06:13:32;8.10;77.40
28845;DHT22;15976;47.938;7.758;2024-02-28T06:16:00;8.10;77.40
28845;DHT22;15976;47.938;7.758;2024-02-28T06:18:27;8.10;77.50
28845;DHT22;15976;47.938;7.758;2024-02-28T06:20:55;8.10;77.40
28845;DHT22;15976;47.938;7.758;2024-02-28T06:23:25;8.00;77.30
28845;DHT22;15976;47.938;7.758;2024-02-28T06:25:56;8.00;77.20
28845;DHT22;15976;47.938;7.758;2024-02-28T06:28:24;8.00;77.20
28845;DHT22;15976;47.938;7.758;2024-02-28T06:30:52;8.00;77.20
28845;DHT22;15976;47.938;7.758;2024-02-28T06:33:20;7.90;77.40
28845;DHT22;15976;47.938;7.758;2024-02-28T06:35:47;7.90;77.30
28845;DHT22;15976;47.938;7.758;2024-02-28T06:38:14;7.90;77.40
28845;DHT22;15976;47.938;7.758;2024-02-28T06:40:42;7.80;77.30
28845;DHT22;15976;47.938;7.758;2024-02-28T06:43:09;7.80;78.30
28845;DHT22;15976;47.938;7.758;2024-02-28T06:45:36;7.70;77.60
28845;DHT22;15976;47.938;7.758;2024-02-28T06:48:06;7.70;78.50
28845;DHT22;15976;47.938;7.758;2024-02-28T06:50:34;7.70;77.90
28845;DHT22;15976;47.938;7.758;2024-02-28T06:53:01;7.70;78.00
28845;DHT22;15976;47.938;7.758;2024-02-28T06:55:29;7.80;77.80
28845;DHT22;15976;47.938;7.758;2024-02-28T06:57:56;7.80;77.70
28845;DHT22;15976;47.938;7.758;2024-02-28T07:00:24;7.80;77.60
28845;DHT22;15976;47.938;7.758;2024-02-28T07:02:51;7.80;77.80
28845;DHT22;15976;47.938;7.758;2024-02-28T07:05:20;7.80;77.80
28845;DHT22;15976;47.938;7.758;2024-02-28T07:07:47;7.70;77.80
28845;DHT22;15976;47.938;7.758;2024-02-28T07:10:14;7.70;77.90
28845;DHT22;15976;47.938;7.758;2024-02-28T07:12:41;7.70;78.10
28845;DHT22;15976;47.938;7.758;2024-02-28T07:15:08;7.60;78.10
28845;DHT22;15976;47.938;7.758;2024-02-28T07:17:35;7.60;78.10
28845;DHT22;15976;47.938;7.758;2024-02-28T07:20:03;7.60;78.40
28845;DHT22;15976;47.938;7.758;2024-02-28T07:22:30;7.50;78.40
28845;DHT22;15976;47.938;7.758;2024-02-28T07:24:57;7.50;78.30
28845;DHT22;15976;47.938;7.758;2024-02-28T07:27:24;7.40;78.40
28845;DHT22;15976;47.938;7.758;2024-02-28T07:29:51;7.40;78.50
28845;DHT22;15976;47.938;7.758;2024-02-28T07:32:18;7.40;78.70
28845;DHT22;15976;47.938;7.758;2024-02-28T07:34:45;7.50;78.60
28845;DHT22;15976;47.938;7.758;2024-02-28T07:37:12;7.40;78.50
28845;DHT22;15976;47.938;7.758;2024-02-28T07:39:39;7.50;78.50
28845;DHT22;15976;47.938;7.758;2024-02-28T07:42:06;7.60;78.30
28845;DHT22;15976;47.938;7.758;2024-02-28T07:44:33;7.60;78.00
28845;DHT22;15976;47.938;7.758;2024-02-28T07:47:00;7.70;78.00
28845;DHT22;15976;47.938;7.758;2024-02-28T07:49:27;7.80;78.60
28845;DHT22;15976;47.938;7.758;2024-02-28T07:51:54;8.20;77.00
28845;DHT22;15976;47.938;7.758;2024-02-28T07:54:23;8.50;76.00
28845;DHT22;15976;47.938;7.758;2024-02-28T07:56:51;9.00;75.40
28845;DHT22;15976;47.938;7.758;2024-02-28T07:59:18;9.40;73.40
28845;DHT22;15976;47.938;7.758;2024-02-28T08:01:45;9.60;72.10
28845;DHT22;15976;47.938;7.758;2024-02-28T08:04:13;9.80;71.90
28845;DHT22;15976;47.938;7.758;2024-02-28T08:06:40;10.10;70.70
28845;DHT22;15976;47.938;7.758;2024-02-28T08:09:08;10.20;69.30
28845;DHT22;15976;47.938;7.758;2024-02-28T08:11:39;10.10;69.20
28845;DHT22;15976;47.938;7.758;2024-02-28T08:14:06;9.80;69.60
28845;DHT22;15976;47.938;7.758;2024-02-28T08:16:33;9.50;70.30
28845;DHT22;15976;47.938;7.758;2024-02-28T08:19:01;9.30;71.40
28845;DHT22;15976;47.938;7.758;2024-02-28T08:21:28;9.10;72.20
28845;DHT22;15976;47.938;7.758;2024-02-28T08:23:56;9.00;72.80
28845;DHT22;15976;47.938;7.758;2024-02-28T08:26:24;8.90;73.20
28845;DHT22;15976;47.938;7.758;2024-02-28T08:28:51;8.80;73.50
28845;DHT22;15976;47.938;7.758;2024-02-28T08:31:18;8.80;73.70
28845;DHT22;15976;47.938;7.758;2024-02-28T08:33:45;8.70;73.80
28845;DHT22;15976;47.938;7.758;2024-02-28T08:36:13;8.70;73.80
28845;DHT22;15976;47.938;7.758;2024-02-28T08:38:40;8.70;74.00
28845;DHT22;15976;47.938;7.758;2024-02-28T08:41:08;8.70;74.20
28845;DHT22;15976;47.938;7.758;2024-02-28T08:43:41;8.80;74.20
28845;DHT22;15976;47.938;7.758;2024-02-28T08:46:08;8.90;74.20
28845;DHT22;15976;47.938;7.758;2024-02-28T08:48:35;9.00;74.10
28845;DHT22;15976;47.938;7.758;2024-02-28T08:51:04;9.10;73.70
28845;DHT22;15976;47.938;7.758;2024-02-28T08:53:31;9.10;73.40
28845;DHT22;15976;47.938;7.758;2024-02-28T08:55:59;9.20;73.20
28845;DHT22;15976;47.938;7.758;2024-02-28T08:58:29;9.20;73.10
28845;DHT22;15976;47.938;7.758;2024-02-28T09:00:56;9.30;73.10
28845;DHT22;15976;47.938;7.758;2024-02-28T09:03:23;9.40;72.80
28845;DHT22;15976;47.938;7.758;2024-02-28T09:05:50;9.50;72.50
28845;DHT22;15976;47.938;7.758;2024-02-28T09:08:18;9.60;72.30
28845;DHT22;15976;47.938;7.758;2024-02-28T09:10:45;9.80;72.20
28845;DHT22;15976;47.938;7.758;2024-02-28T09:13:12;9.90;72.00
28845;DHT22;15976;47.938;7.758;2024-02-28T09:15:39;10.10;71.70
28845;DHT22;15976;47.938;7.758;2024-02-28T09:18:07;10.30;71.10
28845;DHT22;15976;47.938;7.758;2024-02-28T09:20:36;10.40;70.60
28845;DHT22;15976;47.938;7.758;2024-02-28T09:23:03;10.50;70.20
28845;DHT22;15976;47.938;7.758;2024-02-28T09:25:30;10.60;69.70
28845;DHT22;15976;47.938;7.758;2024-02-28T09:27:59;10.60;69.60
28845;DHT22;15976;47.938;7.758;2024-02-28T09:30:28;10.70;69.50
28845;DHT22;15976;47.938;7.758;2024-02-28T09:33:08;10.70;69.40
28845;DHT22;15976;47.938;7.758;2024-02-28T09:35:36;10.80;69.10
28845;DHT22;15976;47.938;7.758;2024-02-28T09:38:03;11.00;68.80
28845;DHT22;15976;47.938;7.758;2024-02-28T09:40:30;11.10;68.30
28845;DHT22;15976;47.938;7.758;2024-02-28T09:43:01;11.10;67.80
28845;DHT22;15976;47.938;7.758;2024-02-28T09:45:30;11.10;67.80
28845;DHT22;15976;47.938;7.758;2024-02-28T09:48:00;11.20;67.70
28845;DHT22;15976;47.938;7.758;2024-02-28T09:50:28;11.20;67.30
28845;DHT22;15976;47.938;7.758;2024-02-28T09:52:55;11.00;67.40
28845;DHT22;15976;47.938;7.758;2024-02-28T09:55:35;11.00;67.80
28845;DHT22;15976;47.938;7.758;2024-02-28T09:58:03;11.00;67.70
28845;DHT22;15976;47.938;7.758;2024-02-28T10:00:31;10.90;67.80
28845;DHT22;15976;47.938;7.758;2024-02-28T10:03:00;10.80;68.00
28845;DHT22;15976;47.938;7.758;2024-02-28T10:05:28;10.70;68.30
28845;DHT22;15976;47.938;7.758;2024-02-28T10:07:55;10.70;68.50
28845;DHT22;15976;47.938;7.758;2024-02-28T10:10:23;10.60;68.60
28845;DHT22;15976;47.938;7.758;2024-02-28T10:12:50;10.60;68.80
28845;DHT22;15976;47.938;7.758;2024-02-28T10:15:17;10.60;69.10
28845;DHT22;15976;47.938;7.758;2024-02-28T10:17:44;10.60;69.30
28845;DHT22;15976;47.938;7.758;2024-02-28T10:20:13;10.60;69.20
28845;DHT22;15976;47.938;7.758;2024-02-28T10:22:40;10.70;69.20
28845;DHT22;15976;47.938;7.758;2024-02-28T10:25:07;10.70;68.90
28845;DHT22;15976;47.938;7.758;2024-02-28T10:27:35;10.80;68.70
28845;DHT22;15976;47.938;7.758;2024-02-28T10:30:03;10.80;68.70
28845;DHT22;15976;47.938;7.758;2024-02-28T10:32:34;10.80;68.70
28845;DHT22;15976;47.938;7.758;2024-02-28T10:35:03;10.70;68.60
28845;DHT22;15976;47.938;7.758;2024-02-28T10:37:32;10.80;68.80
28845;DHT22;15976;47.938;7.758;2024-02-28T10:40:00;10.80;68.70
28845;DHT22;15976;47.938;7.758;2024-02-28T10:42:33;10.90;68.70
28845;DHT22;15976;47.938;7.758;2024-02-28T10:45:03;11.00;68.80
28845;DHT22;15976;47.938;7.758;2024-02-28T10:47:50;11.00;68.60
28845;DHT22;15976;47.938;7.758;2024-02-28T10:50:17;11.10;68.60
28845;DHT22;15976;47.938;7.758;2024-02-28T10:52:45;11.20;68.50
28845;DHT22;15976;47.938;7.758;2024-02-28T10:55:21;11.30;68.40
28845;DHT22;15976;47.938;7.758;2024-02-28T10:58:03;11.40;68.10
28845;DHT22;15976;47.938;7.758;2024-02-28T11:00:32;11.40;68.00
28845;DHT22;15976;47.938;7.758;2024-02-28T11:03:01;11.40;67.80
28845;DHT22;15976;47.938;7.758;2024-02-28T11:05:39;11.50;67.80
28845;DHT22;15976;47.938;7.758;2024-02-28T11:08:11;11.50;67.70
28845;DHT22;15976;47.938;7.758;2024-02-28T11:10:47;11.50;67.80
28845;DHT22;15976;47.938;7.758;2024-02-28T11:13:25;11.60;67.80
28845;DHT22;15976;47.938;7.758;2024-02-28T11:15:54;11.60;67.60
28845;DHT22;15976;47.938;7.758;2024-02-28T11:18:22;11.70;67.40
28845;DHT22;15976;47.938;7.758;2024-02-28T11:20:50;11.70;67.30
28845;DHT22;15976;47.938;7.758;2024-02-28T11:23:18;11.80;67.20
28845;DHT22;15976;47.938;7.758;2024-02-28T11:25:45;11.90;67.00
28845;DHT22;15976;47.938;7.758;2024-02-28T11:28:13;11.90;66.90
28845;DHT22;15976;47.938;7.758;2024-02-28T11:30:41;12.00;66.70
28845;DHT22;15976;47.938;7.758;2024-02-28T11:33:08;12.00;66.50
28845;DHT22;15976;47.938;7.758;2024-02-28T11:35:36;12.00;66.40
28845;DHT22;15976;47.938;7.758;2024-02-28T11:38:06;12.10;66.20
28845;DHT22;15976;47.938;7.758;2024-02-28T11:40:33;12.10;66.00
28845;DHT22;15976;47.938;7.758;2024-02-28T11:43:01;12.10;65.90
28845;DHT22;15976;47.938;7.758;2024-02-28T11:45:31;12.20;66.10
28845;DHT22;15976;47.938;7.758;2024-02-28T11:48:06;12.30;66.00
28845;DHT22;15976;47.938;7.758;2024-02-28T11:50:33;12.40;65.70
28845;DHT22;15976;47.938;7.758;2024-02-28T11:53:00;12.50;65.20
28845;DHT22;15976;47.938;7.758;2024-02-28T11:55:28;12.60;64.80
28845;DHT22;15976;47.938;7.758;2024-02-28T11:57:55;12.70;64.30
28845;DHT22;15976;47.938;7.758;2024-02-28T12:00:22;12.70;64.20
28845;DHT22;15976;47.938;7.758;2024-02-28T12:02:50;12.70;64.00
28845;DHT22;15976;47.938;7.758;2024-02-28T12:05:22;12.70;63.80
28845;DHT22;15976;47.938;7.758;2024-02-28T12:07:49;12.80;63.70
28845;DHT22;15976;47.938;7.758;2024-02-28T12:10:18;12.80;63.50
28845;DHT22;15976;47.938;7.758;2024-02-28T12:12:45;12.90;63.20
28845;DHT22;15976;47.938;7.758;2024-02-28T12:15:15;12.90;63.00
28845;DHT22;15976;47.938;7.758;2024-02-28T12:17:46;13.00;62.70
28845;DHT22;15976;47.938;7.758;2024-02-28T12:20:13;13.10;62.40
28845;DHT22;15976;47.938;7.758;2024-02-28T12:22:40;13.10;62.00
28845;DHT22;15976;47.938;7.758;2024-02-28T12:25:07;13.30;61.70
28845;DHT22;15976;47.938;7.758;2024-02-28T12:27:35;13.40;61.10
28845;DHT22;15976;47.938;7.758;2024-02-28T12:30:03;13.50;60.70
28845;DHT22;15976;47.938;7.758;2024-02-28T12:32:30;13.60;60.30
28845;DHT22;15976;47.938;7.758;2024-02-28T12:34:57;13.60;60.00
28845;DHT22;15976;47.938;7.758;2024-02-28T12:37:24;13.70;59.90
28845;DHT22;15976;47.938;7.758;2024-02-28T12:39:51;13.80;59.60
28845;DHT22;15976;47.938;7.758;2024-02-28T12:42:19;13.70;59.40
28845;DHT22;15976;47.938;7.758;2024-02-28T12:44:46;13.70;59.50
28845;DHT22;15976;47.938;7.758;2024-02-28T12:47:13;13.70;59.30
28845;DHT22;15976;47.938;7.758;2024-02-28T12:49:40;13.70;59.40
28845;DHT22;15976;47.938;7.758;2024-02-28T12:52:07;13.80;59.40
28845;DHT22;15976;47.938;7.758;2024-02-28T12:54:34;13.90;59.10
28845;DHT22;15976;47.938;7.758;2024-02-28T12:57:01;14.20;58.90
28845;DHT22;15976;47.938;7.758;2024-02-28T12:59:32;14.30;58.60
28845;DHT22;15976;47.938;7.758;2024-02-28T13:02:00;14.40;58.30
28845;DHT22;15976;47.938;7.758;2024-02-28T13:04:27;14.40;58.30
28845;DHT22;15976;47.938;7.758;2024-02-28T13:06:55;14.50;58.20
28845;DHT22;15976;47.938;7.758;2024-02-28T13:09:22;14.50;58.10
28845;DHT22;15976;47.938;7.758;2024-02-28T13:11:50;14.50;58.10
28845;DHT22;15976;47.938;7.758;2024-02-28T13:14:17;14.60;58.10
28845;DHT22;15976;47.938;7.758;2024-02-28T13:16:45;14.60;57.80
28845;DHT22;15976;47.938;7.758;2024-02-28T13:19:11;14.60;57.60
28845;DHT22;15976;47.938;7.758;2024-02-28T13:21:40;14.60;57.50
28845;DHT22;15976;47.938;7.758;2024-02-28T13:24:08;14.50;57.40
28845;DHT22;15976;47.938;7.758;2024-02-28T13:26:35;14.50;57.30
28845;DHT22;15976;47.938;7.758;2024-02-28T13:29:02;14.50;57.20
28845;DHT22;15976;47.938;7.758;2024-02-28T13:31:29;14.50;57.20
28845;DHT22;15976;47.938;7.758;2024-02-28T13:33:56;14.50;57.00
28845;DHT22;15976;47.938;7.758;2024-02-28T13:36:23;14.50;56.90
28845;DHT22;15976;47.938;7.758;2024-02-28T13:38:50;14.50;56.80
28845;DHT22;15976;47.938;7.758;2024-02-28T13:41:17;14.50;56.90
28845;DHT22;15976;47.938;7.758;2024-02-28T13:43:44;14.50;56.80
28845;DHT22;15976;47.938;7.758;2024-02-28T13:46:12;14.60;56.60
28845;DHT22;15976;47.938;7.758;2024-02-28T13:48:41;14.60;56.60
28845;DHT22;15976;47.938;7.758;2024-02-28T13:51:08;14.60;56.60
28845;DHT22;15976;47.938;7.758;2024-02-28T13:53:36;14.50;56.50
28845;DHT22;15976;47.938;7.758;2024-02-28T13:56:03;14.40;56.60
28845;DHT22;15976;47.938;7.758;2024-02-28T13:58:30;14.30;56.80
28845;DHT22;15976;47.938;7.758;2024-02-28T14:01:09;14.30;57.00
28845;DHT22;15976;47.938;7.758;2024-02-28T14:03:36;14.30;56.90
28845;DHT22;15976;47.938;7.758;2024-02-28T14:06:06;14.40;56.90
28845;DHT22;15976;47.938;7.758;2024-02-28T14:08:33;14.30;56.80
28845;DHT22;15976;47.938;7.758;2024-02-28T14:11:02;14.30;57.00
28845;DHT22;15976;47.938;7.758;2024-02-28T14:13:29;14.30;56.90
28845;DHT22;15976;47.938;7.758;2024-02-28T14:15:59;14.30;56.80
28845;DHT22;15976;47.938;7.758;2024-02-28T14:18:27;14.30;57.00
28845;DHT22;15976;47.938;7.758;2024-02-28T14:20:54;14.40;56.90
28845;DHT22;15976;47.938;7.758;2024-02-28T14:23:21;14.50;56.80
28845;DHT22;15976;47.938;7.758;2024-02-28T14:25:48;14.70;56.70
28845;DHT22;15976;47.938;7.758;2024-02-28T14:28:15;14.70;56.40
28845;DHT22;15976;47.938;7.758;2024-02-28T14:30:43;14.80;56.40
28845;DHT22;15976;47.938;7.758;2024-02-28T14:33:12;14.70;56.50
28845;DHT22;15976;47.938;7.758;2024-02-28T14:35:40;14.60;56.50
28845;DHT22;15976;47.938;7.758;2024-02-28T14:38:08;14.40;56.70
28845;DHT22;15976;47.938;7.758;2024-02-28T14:40:35;14.30;56.90
28845;DHT22;15976;47.938;7.758;2024-02-28T14:43:02;14.30;57.10
28845;DHT22;15976;47.938;7.758;2024-02-28T14:45:29;14.30;57.20
28845;DHT22;15976;47.938;7.758;2024-02-28T14:47:58;14.20;57.10
28845;DHT22;15976;47.938;7.758;2024-02-28T14:50:25;14.20;57.20
28845;DHT22;15976;47.938;7.758;2024-02-28T14:52:52;14.10;57.30
28845;DHT22;15976;47.938;7.758;2024-02-28T14:55:19;14.10;57.40
28845;DHT22;15976;47.938;7.758;2024-02-28T14:57:46;14.10;57.40
28845;DHT22;15976;47.938;7.758;2024-02-28T15:00:13;14.10;57.50
28845;DHT22;15976;47.938;7.758;2024-02-28T15:02:42;14.10;57.50
28845;DHT22;15976;47.938;7.758;2024-02-28T15:05:11;14.00;57.40
28845;DHT22;15976;47.938;7.758;2024-02-28T15:07:38;13.90;57.50
28845;DHT22;15976;47.938;7.758;2024-02-28T15:10:06;13.90;57.70
28845;DHT22;15976;47.938;7.758;2024-02-28T15:12:34;13.90;57.80
28845;DHT22;15976;47.938;7.758;2024-02-28T15:15:03;13.90;57.90
28845;DHT22;15976;47.938;7.758;2024-02-28T15:17:31;13.90;57.80
28845;DHT22;15976;47.938;7.758;2024-02-28T15:19:59;13.90;57.80
28845;DHT22;15976;47.938;7.758;2024-02-28T15:22:30;13.90;57.70
28845;DHT22;15976;47.938;7.758;2024-02-28T15:24:57;13.80;57.80
28845;DHT22;15976;47.938;7.758;2024-02-28T15:27:24;13.90;57.90
28845;DHT22;15976;47.938;7.758;2024-02-28T15:29:51;13.90;57.80
28845;DHT22;15976;47.938;7.758;2024-02-28T15:32:20;13.90;57.80
28845;DHT22;15976;47.938;7.758;2024-02-28T15:34:47;13.90;57.80
28845;DHT22;15976;47.938;7.758;2024-02-28T15:37:14;14.00;57.90
28845;DHT22;15976;47.938;7.758;2024-02-28T15:39:41;14.00;57.80
28845;DHT22;15976;47.938;7.758;2024-02-28T15:42:10;14.10;57.50
28845;DHT22;15976;47.938;7.758;2024-02-28T15:44:37;14.10;57.50
28845;DHT22;15976;47.938;7.758;2024-02-28T15:47:05;14.00;57.30
28845;DHT22;15976;47.938;7.758;2024-02-28T15:49:32;14.00;57.40